M I D A S
Marine Information and Data Acquisition System
Tripno 1031 of the Zeeleeuw from 2006-02-15 08:21:39 to 2006-02-15 13:48:44
Back to CruiseResearch ActivitiesStationsMapUnderway DataData graphs

EquipmentUnitsComment
TimeDGPSUTC
LatitudeDGPSDM.mWGS84
LongitudeDGPSDM.mWGS84
HeadingGyrodeg 
SOGDGPSknotsSpeed over ground
COGDGPSdegCourse over ground
DepthEcho soundermeters200 kHz
Missing or incorrect values are displayed as -999
Navigation data collected by the RV Zeeleeuw from 2006-02-15 08:09:40 to 2006-02-15 13:59:57
                                                                                    Next 1000 lines
Time Latitude Longitude Heading SOG COG Depth
2006-02-15 08:09:50 51°13.597 2°56.092 116.6 0.6 300 -999
2006-02-15 08:09:55 51°13.597 2°56.09 116.8 0.7 300 -999
2006-02-15 08:10:00 51°13.598 2°56.088 116.8 1 297 -999
2006-02-15 08:10:04 51°13.599 2°56.086 116.8 1.2 298 -999
2006-02-15 08:10:10 51°13.6 2°56.082 116.8 1.5 299 4.9
2006-02-15 08:10:15 51°13.601 2°56.079 116.8 1.7 298 -999
2006-02-15 08:10:20 51°13.603 2°56.075 116.6 2 298 -999
2006-02-15 08:10:25 51°13.605 2°56.07 116.1 2.1 299 -999
2006-02-15 08:10:30 51°13.606 2°56.066 116.1 2.2 296 -999
2006-02-15 08:10:35 51°13.608 2°56.061 116.1 2.4 298 -999
2006-02-15 08:10:40 51°13.609 2°56.056 116.1 2.5 296 -999
2006-02-15 08:10:44 51°13.61 2°56.052 115.8 2.6 297 -999
2006-02-15 08:10:50 51°13.613 2°56.046 115.4 2.7 296 -999
2006-02-15 08:10:55 51°13.614 2°56.04 114.9 2.7 297 -999
2006-02-15 08:11:00 51°13.616 2°56.034 114.4 2.8 294 -999
2006-02-15 08:11:05 51°13.617 2°56.028 113.8 3 294 -999
2006-02-15 08:11:10 51°13.619 2°56.021 113.3 3.3 293 5.1
2006-02-15 08:11:15 51°13.621 2°56.014 113.2 3.6 292 -999
2006-02-15 08:11:20 51°13.623 2°56.006 113.2 3.8 292 -999
2006-02-15 08:11:24 51°13.625 2°55.999 113.3 4 292 -999
2006-02-15 08:11:30 51°13.628 2°55.989 114 4.1 292 -999
2006-02-15 08:11:35 51°13.63 2°55.981 114.7 4.1 293 -999
2006-02-15 08:11:40 51°13.632 2°55.972 115.4 4 294 -999
2006-02-15 08:11:45 51°13.634 2°55.964 116.1 4 294 39.4
2006-02-15 08:11:50 51°13.637 2°55.956 116.5 3.9 294 -999
2006-02-15 08:11:55 51°13.639 2°55.948 116.8 3.9 296 -999
2006-02-15 08:12:00 51°13.641 2°55.941 117.1 3.8 296 -999
2006-02-15 08:12:05 51°13.644 2°55.933 117.3 3.8 295 -999
2006-02-15 08:12:10 51°13.646 2°55.925 117.4 3.9 296 -999
2006-02-15 08:12:15 51°13.648 2°55.918 117.1 3.9 296 42.6
2006-02-15 08:12:20 51°13.651 2°55.91 116.8 3.9 296 -999
2006-02-15 08:12:24 51°13.653 2°55.904 116.4 4 295 -999
2006-02-15 08:12:30 51°13.656 2°55.894 115.8 4 295 -999
2006-02-15 08:12:35 51°13.658 2°55.886 115.3 4 295 -999
2006-02-15 08:12:40 51°13.66 2°55.878 114.7 4 295 -999
2006-02-15 08:12:45 51°13.663 2°55.87 114.1 4 295 -999
2006-02-15 08:12:50 51°13.665 2°55.862 113.4 4 294 -999
2006-02-15 08:12:55 51°13.667 2°55.854 112.5 4 294 31.2
2006-02-15 08:13:00 51°13.669 2°55.846 111.6 3.9 292 42.4
2006-02-15 08:13:04 51°13.671 2°55.84 110.3 3.9 292 36.3
2006-02-15 08:13:10 51°13.673 2°55.83 108.7 3.8 290 -999
2006-02-15 08:13:15 51°13.675 2°55.823 106.6 3.8 290 -999
2006-02-15 08:13:20 51°13.676 2°55.815 105.2 3.6 288 27.9
2006-02-15 08:13:24 51°13.677 2°55.81 103.4 3.5 288 -999
2006-02-15 08:13:30 51°13.679 2°55.801 101.6 3.3 286 -999
2006-02-15 08:13:35 51°13.68 2°55.795 99.7 3.2 285 7.6
2006-02-15 08:13:40 51°13.681 2°55.788 98.3 3 283 7.5
2006-02-15 08:13:44 51°13.682 2°55.784 96.6 2.8 283 -999
2006-02-15 08:13:50 51°13.683 2°55.778 94.4 2.4 282 -999
2006-02-15 08:13:55 51°13.683 2°55.774 92.4 2 284 -999
2006-02-15 08:14:00 51°13.684 2°55.772 89.7 1.3 286 42.8
2006-02-15 08:14:04 51°13.684 2°55.771 85.5 0.9 297 -999
2006-02-15 08:14:10 51°13.685 2°55.77 81.3 0.6 325 -999
2006-02-15 08:14:15 51°13.686 2°55.77 76.7 0.6 3 -999
2006-02-15 08:14:20 51°13.687 2°55.771 71.7 0.8 25 -999
2006-02-15 08:14:25 51°13.689 2°55.772 67.3 1.2 28 51.9
2006-02-15 08:14:30 51°13.691 2°55.774 61.5 1.5 30 43
2006-02-15 08:14:34 51°13.693 2°55.775 55.3 1.8 27 38.7
2006-02-15 08:14:40 51°13.696 2°55.777 49 2 24 -999
2006-02-15 08:14:45 51°13.699 2°55.779 42.6 2.3 19 35.1
2006-02-15 08:14:50 51°13.703 2°55.78 36.3 2.5 14 -999
2006-02-15 08:14:55 51°13.706 2°55.782 30.2 2.7 11 -999
2006-02-15 08:15:00 51°13.71 2°55.782 24 2.7 5 40.3
2006-02-15 08:15:05 51°13.713 2°55.782 19.2 2.4 -999 -999
2006-02-15 08:15:10 51°13.716 2°55.782 16.6 2 357 42
2006-02-15 08:15:15 51°13.717 2°55.781 14 1.7 355 -999
2006-02-15 08:15:20 51°13.718 2°55.78 10.8 0.8 331 -999
2006-02-15 08:15:25 51°13.718 2°55.779 8.7 0.5 287 -999
2006-02-15 08:15:30 51°13.717 2°55.778 7.2 0.7 217 31
2006-02-15 08:15:35 51°13.715 2°55.776 6.2 1.2 205 -999
2006-02-15 08:15:40 51°13.713 2°55.776 4.7 1.7 195 -999
2006-02-15 08:15:45 51°13.71 2°55.775 3.2 1.7 195 -999
2006-02-15 08:15:50 51°13.708 2°55.774 1.9 1.5 195 -999
2006-02-15 08:15:55 51°13.707 2°55.773 0.7 1.3 201 -999
2006-02-15 08:16:00 51°13.706 2°55.772 359.7 0.9 203 -999
2006-02-15 08:16:05 51°13.705 2°55.771 358.4 0.7 218 -999
2006-02-15 08:16:10 51°13.705 2°55.77 357.1 0.4 259 -999
2006-02-15 08:16:15 51°13.706 2°55.769 355.3 0.5 306 -999
2006-02-15 08:16:20 51°13.707 2°55.767 352.2 0.9 318 -999
2006-02-15 08:16:25 51°13.709 2°55.765 349 1.5 328 6.9
2006-02-15 08:16:30 51°13.711 2°55.763 344.3 1.9 327 -999
2006-02-15 08:16:35 51°13.714 2°55.759 339.1 2.4 325 -999
2006-02-15 08:16:40 51°13.718 2°55.755 333.7 2.9 323 -999
2006-02-15 08:16:45 51°13.722 2°55.75 330.9 3.5 321 -999
2006-02-15 08:16:50 51°13.727 2°55.743 328.8 4.4 320 -999
2006-02-15 08:16:54 51°13.731 2°55.737 328.1 4.9 320 -999
2006-02-15 08:17:00 51°13.739 2°55.728 328.6 5.6 322 -999
2006-02-15 08:17:05 51°13.746 2°55.72 329.4 6 322 -999
2006-02-15 08:17:10 51°13.753 2°55.712 329.9 6.5 325 35.9
2006-02-15 08:17:15 51°13.761 2°55.703 330.3 6.9 325 -999
2006-02-15 08:17:20 51°13.77 2°55.694 331.4 7.3 327 -999
2006-02-15 08:17:24 51°13.777 2°55.687 332.3 7.7 328 -999
2006-02-15 08:17:30 51°13.789 2°55.676 332.6 7.9 328 -999
2006-02-15 08:17:35 51°13.799 2°55.666 332.7 8.2 329 -999
2006-02-15 08:17:40 51°13.809 2°55.657 332.9 8.4 329 -999
2006-02-15 08:17:45 51°13.819 2°55.647 332.9 8.5 329 -999
2006-02-15 08:17:50 51°13.83 2°55.637 333.4 7.3 331 -999
2006-02-15 08:17:55 51°13.841 2°55.628 334.7 9 332 -999
2006-02-15 08:18:00 51°13.853 2°55.619 336.1 9.2 334 -999
2006-02-15 08:18:05 51°13.864 2°55.61 337.4 9.3 334 -999
2006-02-15 08:18:10 51°13.876 2°55.602 338.1 9.4 334 -999
2006-02-15 08:18:15 51°13.889 2°55.593 339.4 9.5 336 7.2
2006-02-15 08:18:20 51°13.901 2°55.584 339.6 9.6 335 -999
2006-02-15 08:18:25 51°13.912 2°55.575 339.6 9.6 336 -999
2006-02-15 08:18:30 51°13.924 2°55.566 339.6 9.6 335 -999
2006-02-15 08:18:35 51°13.937 2°55.557 340.2 9.5 336 -999
2006-02-15 08:18:40 51°13.948 2°55.549 340.2 9.3 335 -999
2006-02-15 08:18:45 51°13.96 2°55.541 341 9.2 337 -999
2006-02-15 08:18:50 51°13.971 2°55.533 341.7 9.1 337 4.8
2006-02-15 08:18:55 51°13.983 2°55.524 341.7 9.1 336 8.5
2006-02-15 08:19:00 51°13.994 2°55.516 341.1 9 336 -999
2006-02-15 08:19:05 51°14.005 2°55.508 341.1 8.9 335 4.8
2006-02-15 08:19:10 51°14.016 2°55.5 341 8.7 335 -999
2006-02-15 08:19:15 51°14.027 2°55.492 340.9 8.7 335 -999
2006-02-15 08:19:19 51°14.036 2°55.485 340.9 8.7 335 8
2006-02-15 08:19:24 51°14.047 2°55.478 340.9 8.7 336 8.6
2006-02-15 08:19:30 51°14.06 2°55.468 340.7 8.8 335 -999
2006-02-15 08:19:35 51°14.071 2°55.459 340.5 9 335 -999
2006-02-15 08:19:40 51°14.083 2°55.451 340 9.1 334 -999
2006-02-15 08:19:44 51°14.092 2°55.443 340 9.3 334 -999
2006-02-15 08:19:50 51°14.106 2°55.433 340.5 9.4 336 -999
2006-02-15 08:19:55 51°14.118 2°55.424 340.5 9.5 335 8.4
2006-02-15 08:20:00 51°14.13 2°55.415 340.1 9.6 335 8.6
2006-02-15 08:20:05 51°14.142 2°55.406 339.8 9.6 334 -999
2006-02-15 08:20:10 51°14.154 2°55.396 338.5 9.7 332 -999
2006-02-15 08:20:15 51°14.166 2°55.386 337.4 9.7 332 -999
2006-02-15 08:20:20 51°14.178 2°55.375 336 9.7 330 -999
2006-02-15 08:20:24 51°14.187 2°55.366 334.4 9.7 329 -999
2006-02-15 08:20:30 51°14.2 2°55.351 332.5 9.7 326 -999
2006-02-15 08:20:35 51°14.211 2°55.338 330.3 9.7 324 -999
2006-02-15 08:20:40 51°14.222 2°55.325 328.5 9.7 322 -999
2006-02-15 08:20:45 51°14.232 2°55.311 326.1 9.7 320 -999
2006-02-15 08:20:50 51°14.242 2°55.297 324.5 9.7 318 -999
2006-02-15 08:20:55 51°14.251 2°55.281 322.8 9.8 317 -999
2006-02-15 08:21:00 51°14.261 2°55.266 320.8 9.7 315 -999
2006-02-15 08:21:04 51°14.268 2°55.254 320 9.7 314 -999
2006-02-15 08:21:10 51°14.279 2°55.235 318.7 9.7 313 -999
2006-02-15 08:21:15 51°14.288 2°55.219 317.1 9.7 312 -999
2006-02-15 08:21:20 51°14.297 2°55.202 315.3 9.8 309 -999
2006-02-15 08:21:25 51°14.305 2°55.185 314.2 9.9 309 -999
2006-02-15 08:21:30 51°14.314 2°55.168 314.4 9.9 310 -999
2006-02-15 08:21:35 51°14.323 2°55.151 314.5 10 310 -999
2006-02-15 08:21:40 51°14.332 2°55.134 314.7 10 311 -999
2006-02-15 08:21:45 51°14.341 2°55.118 315.9 10.1 312 8.4
2006-02-15 08:21:50 51°14.351 2°55.102 317.4 10.2 313 -999
2006-02-15 08:21:55 51°14.361 2°55.085 318.3 10.3 314 -999
2006-02-15 08:22:00 51°14.372 2°55.069 319.4 10.5 315 -999
2006-02-15 08:22:04 51°14.38 2°55.055 320 10.7 314 -999
2006-02-15 08:22:10 51°14.393 2°55.034 320.8 11 316 -999
2006-02-15 08:22:15 51°14.404 2°55.016 320.7 11.3 314 -999
2006-02-15 08:22:20 51°14.415 2°54.996 318.7 11.5 312 8
2006-02-15 08:22:24 51°14.423 2°54.98 317.1 11.7 309 8.1
2006-02-15 08:22:30 51°14.434 2°54.955 315.6 11.7 307 8
2006-02-15 08:22:35 51°14.443 2°54.933 314.3 11.8 304 8
2006-02-15 08:22:40 51°14.451 2°54.91 311.7 11.9 301 7.9
2006-02-15 08:22:44 51°14.456 2°54.891 307.6 12 296 7.7
2006-02-15 08:22:48 51°14.461 2°54.871 303.3 12 293 7.7
2006-02-15 08:22:54 51°14.467 2°54.84 299 12.1 289 7.9
2006-02-15 08:22:59 51°14.472 2°54.815 295.6 12.2 286 7.9
2006-02-15 08:23:04 51°14.476 2°54.788 292.5 12.2 285 8.1
2006-02-15 08:23:10 51°14.481 2°54.756 290.2 12.3 282 -999
2006-02-15 08:23:14 51°14.483 2°54.735 287.8 12.4 280 8
2006-02-15 08:23:19 51°14.485 2°54.706 285.5 12.5 279 7.9
2006-02-15 08:23:24 51°14.487 2°54.678 283.5 12.6 276 8
2006-02-15 08:23:28 51°14.488 2°54.656 281.8 12.6 275 7.9
2006-02-15 08:23:34 51°14.488 2°54.623 279.2 12.6 270 7.9
2006-02-15 08:23:40 51°14.487 2°54.589 276.1 12.7 269 7.9
2006-02-15 08:23:44 51°14.487 2°54.567 274.4 12.8 268 7.9
2006-02-15 08:23:49 51°14.486 2°54.538 273.1 12.8 267 7.8
2006-02-15 08:23:54 51°14.484 2°54.51 272 12.7 266 7.9
2006-02-15 08:23:59 51°14.481 2°54.483 270 12.7 261 7.9
2006-02-15 08:24:04 51°14.477 2°54.455 266 12.7 258 7.8
2006-02-15 08:24:09 51°14.472 2°54.428 263.2 12.7 255 8
2006-02-15 08:24:14 51°14.466 2°54.402 259.7 12.6 252 7.8
2006-02-15 08:24:19 51°14.46 2°54.376 256.3 12.6 250 7.8
2006-02-15 08:24:24 51°14.453 2°54.35 253.7 12.6 247 7.8
2006-02-15 08:24:30 51°14.444 2°54.32 251.3 12.6 245 7.8
2006-02-15 08:24:35 51°14.436 2°54.295 248.8 12.7 243 7.8
2006-02-15 08:24:39 51°14.43 2°54.276 246.6 12.6 243 7.8
2006-02-15 08:24:44 51°14.421 2°54.251 245.9 12.6 242 7.6
2006-02-15 08:24:50 51°14.411 2°54.222 245.4 12.5 241 7.6
2006-02-15 08:24:55 51°14.403 2°54.198 244.8 12.5 240 7.6
2006-02-15 08:25:00 51°14.394 2°54.174 244 12.5 240 7.5
2006-02-15 08:25:04 51°14.386 2°54.155 243.1 12.5 240 7.5
2006-02-15 08:25:08 51°14.379 2°54.136 242.4 12.7 238 7.5
2006-02-15 08:25:15 51°14.365 2°54.102 242.2 12.8 237 7.5
2006-02-15 08:25:19 51°14.358 2°54.083 241.7 12.8 238 7.5
2006-02-15 08:25:24 51°14.349 2°54.059 242 12.8 238 5.6
2006-02-15 08:25:29 51°14.339 2°54.035 242.1 12.8 239 7.5
2006-02-15 08:25:34 51°14.33 2°54.011 242.3 12.9 238 7.5
2006-02-15 08:25:40 51°14.319 2°53.981 242.4 12.9 239 7.5
2006-02-15 08:25:44 51°14.312 2°53.961 243 13 239 7.5
2006-02-15 08:25:48 51°14.305 2°53.941 244.2 13 241 5.6
2006-02-15 08:25:54 51°14.295 2°53.91 245.8 13 243 7.5
2006-02-15 08:26:00 51°14.286 2°53.879 247.1 13 243 7.5
2006-02-15 08:26:05 51°14.278 2°53.853 248.2 13 244 7.5
2006-02-15 08:26:08 51°14.273 2°53.838 248.9 13 244 7.5
2006-02-15 08:26:14 51°14.264 2°53.807 249.1 13 244 7.5
2006-02-15 08:26:19 51°14.256 2°53.781 249 13.1 244 7.5
2006-02-15 08:26:25 51°14.246 2°53.75 248.3 13.1 243 7.5
2006-02-15 08:26:28 51°14.24 2°53.735 247.5 13.1 242 7.5
2006-02-15 08:26:35 51°14.228 2°53.7 246.4 13 240 5.6
2006-02-15 08:26:39 51°14.22 2°53.68 244.8 13.1 239 7.6
2006-02-15 08:26:44 51°14.211 2°53.656 243.4 13.1 238 7.6
2006-02-15 08:26:49 51°14.201 2°53.631 242.3 13.1 237 7.6
2006-02-15 08:26:54 51°14.19 2°53.607 241.1 13.1 237 7.5
2006-02-15 08:26:59 51°14.18 2°53.583 240.9 13.1 237 7.6
2006-02-15 08:27:04 51°14.171 2°53.559 240.5 13.1 236 7.6
2006-02-15 08:27:09 51°14.161 2°53.534 240.9 13.2 238 7.6
2006-02-15 08:27:14 51°14.151 2°53.51 241.9 13.2 238 7.7
2006-02-15 08:27:19 51°14.142 2°53.484 243.8 13.2 240 7.7
2006-02-15 08:27:24 51°14.134 2°53.458 244.9 13.1 242 7.7
2006-02-15 08:27:28 51°14.127 2°53.438 246.6 13.1 243 7.7
2006-02-15 08:27:34 51°14.118 2°53.406 248.1 13.2 244 7.7
2006-02-15 08:27:40 51°14.109 2°53.374 248.9 13.2 245 7.8
2006-02-15 08:27:44 51°14.102 2°53.353 249.5 13.2 245 7.9
2006-02-15 08:27:49 51°14.094 2°53.327 249.6 13.2 244 7.9
2006-02-15 08:27:54 51°14.086 2°53.301 249 13.2 243 7.9
2006-02-15 08:28:00 51°14.075 2°53.27 248 13.2 242 8
2006-02-15 08:28:04 51°14.068 2°53.25 246.3 13.3 241 8
2006-02-15 08:28:08 51°14.06 2°53.23 244.9 13.2 239 8
2006-02-15 08:28:15 51°14.047 2°53.195 243.4 13.2 239 8
2006-02-15 08:28:19 51°14.039 2°53.175 243.1 13.2 238 8
2006-02-15 08:28:24 51°14.029 2°53.151 242.5 13.2 238 8.1
2006-02-15 08:28:29 51°14.02 2°53.125 242.7 13.3 238 8.1
2006-02-15 08:28:34 51°14.01 2°53.1 242.8 13.3 238 8.1
2006-02-15 08:28:39 51°14.001 2°53.075 243.1 13.2 239 8.2
2006-02-15 08:28:44 51°13.991 2°53.05 243.5 13.2 240 8.1
2006-02-15 08:28:49 51°13.982 2°53.025 243.7 13.2 238 8.2
2006-02-15 08:28:54 51°13.972 2°53 243.4 13.3 239 8.2
2006-02-15 08:28:59 51°13.963 2°52.975 243.3 13.2 239 8.3
2006-02-15 08:29:04 51°13.954 2°52.95 243.7 13.3 239 8.3
2006-02-15 08:29:10 51°13.943 2°52.919 244.3 13.3 239 8.3
2006-02-15 08:29:14 51°13.936 2°52.899 245.3 13.3 242 8.4
2006-02-15 08:29:19 51°13.928 2°52.873 246.4 13.3 242 8.5
2006-02-15 08:29:24 51°13.919 2°52.847 247.3 13.2 243 8.5
2006-02-15 08:29:28 51°13.913 2°52.826 248.1 13.2 244 8.4
2006-02-15 08:29:35 51°13.901 2°52.789 248.7 13.2 243 8.5
2006-02-15 08:29:39 51°13.895 2°52.768 248.9 13.2 244 8.5
2006-02-15 08:29:44 51°13.886 2°52.742 248.9 13.2 243 8.4
2006-02-15 08:29:49 51°13.877 2°52.716 247.6 13.2 241 8.5
2006-02-15 08:29:54 51°13.868 2°52.691 246.2 13.2 240 8.5
2006-02-15 08:29:59 51°13.858 2°52.666 245.2 13.2 239 8.6
2006-02-15 08:30:04 51°13.849 2°52.641 244.1 13.2 239 8.5
2006-02-15 08:30:10 51°13.837 2°52.612 243.5 13.2 239 8.5
2006-02-15 08:30:14 51°13.829 2°52.592 243.1 13.2 238 8.6
2006-02-15 08:30:20 51°13.818 2°52.562 242.8 13.2 238 8.6
2006-02-15 08:30:24 51°13.81 2°52.542 243 13.2 239 8.6
2006-02-15 08:30:29 51°13.801 2°52.517 243.3 13.2 239 8.6
2006-02-15 08:30:34 51°13.791 2°52.492 244.1 13.2 240 8.7
2006-02-15 08:30:40 51°13.781 2°52.461 244.5 13.2 240 8.7
2006-02-15 08:30:44 51°13.773 2°52.441 244.8 13.2 240 8.7
2006-02-15 08:30:49 51°13.764 2°52.416 244.9 13.3 240 8.7
2006-02-15 08:30:54 51°13.755 2°52.39 245.3 13.3 240 8.8
2006-02-15 08:30:59 51°13.745 2°52.365 245 13.3 240 8.7
2006-02-15 08:31:04 51°13.735 2°52.341 244.1 13.3 240 8.7
2006-02-15 08:31:08 51°13.727 2°52.322 242.7 13.2 236 8.8
2006-02-15 08:31:14 51°13.715 2°52.293 241.5 13.2 236 8.7
2006-02-15 08:31:19 51°13.704 2°52.269 240.4 13.2 234 8.7
2006-02-15 08:31:24 51°13.693 2°52.245 239.9 13.2 235 8.7
2006-02-15 08:31:28 51°13.685 2°52.226 239.7 13.2 235 8.7
2006-02-15 08:31:34 51°13.673 2°52.197 240 13.2 237 8.7
2006-02-15 08:31:39 51°13.663 2°52.172 240.9 13.2 237 8.7
2006-02-15 08:31:44 51°13.653 2°52.147 242 13.2 239 8.7
2006-02-15 08:31:48 51°13.645 2°52.128 243.1 13.1 239 8.7
2006-02-15 08:31:54 51°13.634 2°52.098 244 13.2 239 8.7
2006-02-15 08:31:59 51°13.625 2°52.072 244.3 13.2 239 8.7
2006-02-15 08:32:04 51°13.615 2°52.047 244.4 13.2 239 8.7
2006-02-15 08:32:09 51°13.606 2°52.023 243.8 13.2 238 8.7
2006-02-15 08:32:15 51°13.593 2°51.993 243.1 13.2 237 8.7
2006-02-15 08:32:19 51°13.585 2°51.975 241.8 13.2 236 8.7
2006-02-15 08:32:24 51°13.574 2°51.951 240.9 13.2 236 8.6
2006-02-15 08:32:29 51°13.563 2°51.927 240.2 13.3 235 8.7
2006-02-15 08:32:34 51°13.553 2°51.903 240.3 13.2 235 8.7
2006-02-15 08:32:40 51°13.541 2°51.874 240.6 13.2 236 8.7
2006-02-15 08:32:44 51°13.533 2°51.854 241.5 13.2 237 8.7
2006-02-15 08:32:48 51°13.525 2°51.834 242.4 13.2 238 8.7
2006-02-15 08:32:55 51°13.512 2°51.799 243.4 13.2 239 8.7
2006-02-15 08:32:59 51°13.505 2°51.779 243.9 13.3 239 8.8
2006-02-15 08:33:04 51°13.495 2°51.754 244.5 13.2 239 8.8
2006-02-15 08:33:09 51°13.486 2°51.729 244.1 13.2 238 8.8
2006-02-15 08:33:14 51°13.476 2°51.704 243.7 13.2 238 8.7
2006-02-15 08:33:19 51°13.466 2°51.68 243.1 13.2 238 8.7
2006-02-15 08:33:24 51°13.456 2°51.655 242.3 13.2 237 8.8
2006-02-15 08:33:29 51°13.446 2°51.631 241.4 13.2 235 8.8
2006-02-15 08:33:34 51°13.436 2°51.607 240.4 13.2 235 8.8
2006-02-15 08:33:39 51°13.425 2°51.583 239.8 13.2 235 8.8
2006-02-15 08:33:44 51°13.414 2°51.559 239.5 13.2 235 8.8
2006-02-15 08:33:49 51°13.404 2°51.534 239.5 13.2 235 8.8
2006-02-15 08:33:54 51°13.394 2°51.51 239.7 13.3 235 8.8
2006-02-15 08:33:59 51°13.384 2°51.486 240.5 13.2 236 8.8
2006-02-15 08:34:04 51°13.374 2°51.461 241.3 13.2 237 8.8
2006-02-15 08:34:09 51°13.364 2°51.437 242.7 13.1 239 8.8
2006-02-15 08:34:14 51°13.355 2°51.412 243.8 13.2 240 8.8
2006-02-15 08:34:19 51°13.345 2°51.387 244.3 13.2 239 8.7
2006-02-15 08:34:24 51°13.336 2°51.362 244.5 13.2 239 8.7
2006-02-15 08:34:28 51°13.329 2°51.342 244.5 13.2 239 8.7
2006-02-15 08:34:34 51°13.317 2°51.312 243.9 13.3 238 8.9
2006-02-15 08:34:40 51°13.305 2°51.283 243.1 13.3 238 8.8
2006-02-15 08:34:44 51°13.297 2°51.263 241.8 13.3 238 8.8
2006-02-15 08:34:48 51°13.289 2°51.244 241.1 13.1 236 8.8
2006-02-15 08:34:54 51°13.276 2°51.216 240.5 13.2 236 8.8
2006-02-15 08:34:59 51°13.266 2°51.191 240.4 13.2 236 8.9
2006-02-15 08:35:04 51°13.257 2°51.166 241 13.1 237 8.8
2006-02-15 08:35:09 51°13.247 2°51.141 241.8 13.2 238 8.9
2006-02-15 08:35:14 51°13.237 2°51.117 242.8 13.2 238 8.8
2006-02-15 08:35:19 51°13.228 2°51.092 243.2 13.2 239 8.9
2006-02-15 08:35:24 51°13.218 2°51.068 243.7 13.2 239 8.8
2006-02-15 08:35:29 51°13.208 2°51.043 243.8 13.2 238 8.9
2006-02-15 08:35:34 51°13.198 2°51.018 243.1 13.2 237 8.9
2006-02-15 08:35:39 51°13.188 2°50.994 242.5 13.3 237 8.9
2006-02-15 08:35:44 51°13.178 2°50.97 242.1 13.3 237 9
2006-02-15 08:35:48 51°13.17 2°50.95 241.5 13.2 236 8.9
2006-02-15 08:35:54 51°13.158 2°50.921 240.9 13.2 236 9
2006-02-15 08:35:59 51°13.147 2°50.897 241 13.2 236 9.1
2006-02-15 08:36:04 51°13.137 2°50.872 241.3 13.2 236 8.9
2006-02-15 08:36:09 51°13.127 2°50.847 241.5 13.2 237 8.9
2006-02-15 08:36:14 51°13.118 2°50.822 242.1 13.2 237 8.9
2006-02-15 08:36:19 51°13.108 2°50.797 242.7 13.3 239 8.9
2006-02-15 08:36:24 51°13.099 2°50.772 243.8 13.3 239 8.9
2006-02-15 08:36:29 51°13.089 2°50.747 244.1 13.2 240 8.9
2006-02-15 08:36:34 51°13.08 2°50.722 244.5 13.2 239 8.9
2006-02-15 08:36:40 51°13.068 2°50.692 244.4 13.3 239 8.9
2006-02-15 08:36:44 51°13.061 2°50.672 244.3 13.3 239 8.9
2006-02-15 08:36:49 51°13.051 2°50.647 244.1 13.2 239 8.9
2006-02-15 08:36:54 51°13.042 2°50.622 243.9 13.3 238 9
2006-02-15 08:36:59 51°13.032 2°50.598 243.6 13.2 238 9
2006-02-15 08:37:04 51°13.022 2°50.573 243.1 13.2 238 9
2006-02-15 08:37:09 51°13.012 2°50.549 242.5 13.2 237 9
2006-02-15 08:37:14 51°13.002 2°50.524 242.1 13.2 236 9
2006-02-15 08:37:20 51°12.989 2°50.496 241.1 13.2 236 9
2006-02-15 08:37:24 51°12.981 2°50.477 240.6 13.2 235 9
2006-02-15 08:37:29 51°12.971 2°50.452 240.5 13.2 236 9
2006-02-15 08:37:34 51°12.961 2°50.428 240.6 13.1 236 8.9
2006-02-15 08:37:39 51°12.951 2°50.403 241.2 13.2 236 9
2006-02-15 08:37:44 51°12.941 2°50.379 241.8 13.2 236 9
2006-02-15 08:37:48 51°12.933 2°50.36 242 13.1 238 9
2006-02-15 08:37:54 51°12.922 2°50.33 242.4 13.1 238 9
2006-02-15 08:37:59 51°12.912 2°50.305 242.8 13.1 238 9
2006-02-15 08:38:04 51°12.903 2°50.281 243.1 13.1 239 9
2006-02-15 08:38:09 51°12.893 2°50.256 244.2 13.1 239 9.1
2006-02-15 08:38:14 51°12.884 2°50.231 244.2 13.1 239 9
2006-02-15 08:38:19 51°12.874 2°50.207 244.2 13.1 239 9
2006-02-15 08:38:24 51°12.864 2°50.182 244.2 13.1 239 9
2006-02-15 08:38:30 51°12.852 2°50.153 243.8 13.1 238 9
2006-02-15 08:38:35 51°12.842 2°50.129 243.1 13.1 237 9
2006-02-15 08:38:39 51°12.834 2°50.11 241.9 13.1 236 9.1
2006-02-15 08:38:44 51°12.823 2°50.087 240.9 13.2 235 9
2006-02-15 08:38:49 51°12.813 2°50.063 240.3 13.2 235 9
2006-02-15 08:38:55 51°12.801 2°50.034 240.2 13.2 235 9
2006-02-15 08:38:59 51°12.793 2°50.014 240.2 13.2 236 9.1
2006-02-15 08:39:04 51°12.783 2°49.989 241.4 13.2 236 9
2006-02-15 08:39:09 51°12.774 2°49.964 241.7 13.2 237 9
2006-02-15 08:39:15 51°12.762 2°49.934 242.3 13.2 237 9
2006-02-15 08:39:19 51°12.754 2°49.914 242.9 13.2 238 9
2006-02-15 08:39:24 51°12.744 2°49.889 243.9 13.2 239 9
2006-02-15 08:39:29 51°12.735 2°49.864 244.1 13.3 239 9
2006-02-15 08:39:34 51°12.725 2°49.839 244.3 13.3 239 9.1
2006-02-15 08:39:39 51°12.716 2°49.814 244.7 13.3 239 9
2006-02-15 08:39:44 51°12.706 2°49.79 244.7 13.3 239 9.1
2006-02-15 08:39:49 51°12.696 2°49.765 244.7 13.3 238 9
2006-02-15 08:39:54 51°12.686 2°49.74 243.8 13.3 238 9
2006-02-15 08:39:59 51°12.676 2°49.715 243.7 13.3 238 9.1
2006-02-15 08:40:05 51°12.665 2°49.685 243.5 13.3 238 9.1
2006-02-15 08:40:08 51°12.659 2°49.67 244.3 13.3 240 9.1
2006-02-15 08:40:15 51°12.647 2°49.635 245.4 13.2 241 9.1
2006-02-15 08:40:19 51°12.64 2°49.614 246 13.3 241 9
2006-02-15 08:40:24 51°12.631 2°49.588 247 13.3 242 9.1
2006-02-15 08:40:29 51°12.623 2°49.562 247.9 13.2 242 9
2006-02-15 08:40:34 51°12.614 2°49.536 248.2 13.2 243 9.1
2006-02-15 08:40:39 51°12.606 2°49.51 248.4 13.3 242 9.1
2006-02-15 08:40:44 51°12.597 2°49.484 248 13.3 242 9.1
2006-02-15 08:40:48 51°12.591 2°49.463 247.7 13.2 242 9.1
2006-02-15 08:40:55 51°12.579 2°49.427 247.9 13.2 242 9.1
2006-02-15 08:40:59 51°12.572 2°49.406 248.2 13.3 243 9.2
2006-02-15 08:41:04 51°12.564 2°49.38 248.3 13.3 243 9.2
2006-02-15 08:41:08 51°12.557 2°49.359 248.1 13.2 242 9.2
2006-02-15 08:41:15 51°12.544 2°49.324 247.3 13.2 242 9.2
2006-02-15 08:41:19 51°12.537 2°49.303 246.8 13.2 241 9.2
2006-02-15 08:41:24 51°12.528 2°49.278 246.7 13.2 242 9.2
2006-02-15 08:41:29 51°12.52 2°49.252 246.7 13.2 242 9.2
2006-02-15 08:41:34 51°12.511 2°49.226 247 13.2 242 9.2
2006-02-15 08:41:40 51°12.501 2°49.195 247.5 13.2 243 9.1
2006-02-15 08:41:44 51°12.495 2°49.174 248.5 13.2 243 9.2
2006-02-15 08:41:49 51°12.487 2°49.148 249.3 13.2 244 9.2
2006-02-15 08:41:54 51°12.479 2°49.121 250.1 13.2 245 9.2
2006-02-15 08:41:59 51°12.471 2°49.094 250.9 13.3 246 9.2
2006-02-15 08:42:04 51°12.464 2°49.068 251.2 13.3 246 9.3
2006-02-15 08:42:09 51°12.457 2°49.041 251.8 13.3 246 9.3
2006-02-15 08:42:14 51°12.449 2°49.014 252.2 13.3 246 9.3
2006-02-15 08:42:19 51°12.442 2°48.987 252.4 13.3 246 9.4
2006-02-15 08:42:24 51°12.434 2°48.961 252.1 13.3 245 9.3
2006-02-15 08:42:29 51°12.426 2°48.934 251.3 13.3 245 9.4
2006-02-15 08:42:34 51°12.419 2°48.908 250.9 13.3 245 9.3
2006-02-15 08:42:39 51°12.411 2°48.881 250.5 13.2 245 9.3
2006-02-15 08:42:44 51°12.403 2°48.855 250.5 13.2 244 9.4
2006-02-15 08:42:49 51°12.395 2°48.829 250.2 13.2 245 9.5
2006-02-15 08:42:54 51°12.387 2°48.802 249.8 13.2 243 9.4
2006-02-15 08:42:59 51°12.379 2°48.777 249.6 13.2 243 9.5
2006-02-15 08:43:04 51°12.37 2°48.75 249.3 13.2 243 9.5
2006-02-15 08:43:09 51°12.362 2°48.724 248.7 13.2 243 9.5
2006-02-15 08:43:14 51°12.354 2°48.698 248.6 13.2 244 9.5
2006-02-15 08:43:19 51°12.346 2°48.671 249.1 13.3 245 9.5
2006-02-15 08:43:24 51°12.338 2°48.645 250 13.3 245 9.6
2006-02-15 08:43:28 51°12.332 2°48.624 250.5 13.3 246 9.5
2006-02-15 08:43:35 51°12.322 2°48.586 251.4 13.3 246 9.6
2006-02-15 08:43:39 51°12.316 2°48.565 251.5 13.2 246 9.6
2006-02-15 08:43:44 51°12.308 2°48.538 251.8 13.3 246 9.6
2006-02-15 08:43:49 51°12.301 2°48.511 251.8 13.3 246 9.7
2006-02-15 08:43:54 51°12.293 2°48.485 251.8 13.3 245 9.7
2006-02-15 08:44:00 51°12.284 2°48.453 251.4 13.3 246 9.7
2006-02-15 08:44:04 51°12.278 2°48.432 250.9 13.2 245 9.8
2006-02-15 08:44:08 51°12.271 2°48.411 250.4 13.3 245 9.8
2006-02-15 08:44:15 51°12.26 2°48.374 249.7 13.2 244 9.7
2006-02-15 08:44:19 51°12.254 2°48.353 249.5 13.2 243 9.8
2006-02-15 08:44:24 51°12.246 2°48.327 248.9 13.2 244 9.7
2006-02-15 08:44:29 51°12.237 2°48.301 248.4 13.2 243 9.8
2006-02-15 08:44:34 51°12.229 2°48.275 248.4 13.2 243 9.8
2006-02-15 08:44:39 51°12.221 2°48.249 248.5 13.2 243 9.8
2006-02-15 08:44:44 51°12.213 2°48.222 248.6 13.2 244 9.8
2006-02-15 08:44:50 51°12.204 2°48.191 249.2 13.3 244 9.8
2006-02-15 08:44:55 51°12.196 2°48.164 249.5 13.3 245 9.8
2006-02-15 08:44:59 51°12.19 2°48.143 250.1 13.2 245 9.9
2006-02-15 08:45:04 51°12.182 2°48.116 250.6 13.3 246 9.8
2006-02-15 08:45:10 51°12.173 2°48.084 250.8 13.3 246 9.9
2006-02-15 08:45:15 51°12.166 2°48.057 251.1 13.3 246 9.9
2006-02-15 08:45:19 51°12.159 2°48.036 251.4 13.3 247 9.9
2006-02-15 08:45:24 51°12.152 2°48.009 251.1 13.3 246 10
2006-02-15 08:45:30 51°12.143 2°47.977 251.1 13.3 246 10
2006-02-15 08:45:35 51°12.135 2°47.95 250.6 13.3 246 10
2006-02-15 08:45:39 51°12.129 2°47.929 250.4 13.3 245 10.1
2006-02-15 08:45:44 51°12.121 2°47.902 250.4 13.3 246 10.1
2006-02-15 08:45:49 51°12.113 2°47.876 250.3 13.3 245 10.1
2006-02-15 08:45:55 51°12.104 2°47.843 250.2 13.4 245 10.1
2006-02-15 08:45:59 51°12.098 2°47.822 250.2 13.3 245 10.1
2006-02-15 08:46:04 51°12.09 2°47.795 250.3 13.3 245 10.1
2006-02-15 08:46:09 51°12.082 2°47.768 250.3 13.4 246 10.1
2006-02-15 08:46:15 51°12.073 2°47.736 250.4 13.4 246 10.1
2006-02-15 08:46:20 51°12.066 2°47.709 250.4 13.4 246 10.1
2006-02-15 08:46:24 51°12.06 2°47.688 250.3 13.3 246 10.1
2006-02-15 08:46:29 51°12.052 2°47.661 250.4 13.3 245 10.1
2006-02-15 08:46:34 51°12.044 2°47.635 250.3 13.3 245 10.1
2006-02-15 08:46:39 51°12.036 2°47.608 250 13.3 245 10.1
2006-02-15 08:46:45 51°12.026 2°47.576 249.6 13.3 244 10.1
2006-02-15 08:46:48 51°12.021 2°47.561 249.4 13.3 244 10.1
2006-02-15 08:46:55 51°12.01 2°47.524 249.5 13.3 244 10.1
2006-02-15 08:47:00 51°12.003 2°47.497 249.5 13.3 245 10.2
2006-02-15 08:47:05 51°11.995 2°47.47 250 13.3 245 10.2
2006-02-15 08:47:09 51°11.989 2°47.448 250.3 13.3 246 10.1
2006-02-15 08:47:14 51°11.982 2°47.422 250.7 13.3 246 10.1
2006-02-15 08:47:19 51°11.974 2°47.395 251.3 13.3 246 10.2
2006-02-15 08:47:24 51°11.967 2°47.368 251.2 13.3 246 10.1
2006-02-15 08:47:29 51°11.959 2°47.341 251.3 13.3 246 10.1
2006-02-15 08:47:34 51°11.952 2°47.315 251.3 13.3 246 10.2
2006-02-15 08:47:39 51°11.944 2°47.288 251 13.3 246 10.2
2006-02-15 08:47:44 51°11.937 2°47.261 250.6 13.3 245 10.2
2006-02-15 08:47:48 51°11.93 2°47.24 250.2 13.3 245 10.3
2006-02-15 08:47:55 51°11.919 2°47.203 250 13.3 245 10.2
2006-02-15 08:47:59 51°11.913 2°47.181 250.2 13.3 245 10.2
2006-02-15 08:48:04 51°11.906 2°47.154 250.3 13.2 245 10.2
2006-02-15 08:48:09 51°11.898 2°47.128 250.4 13.3 245 10.2
2006-02-15 08:48:15 51°11.889 2°47.096 250.5 13.3 246 10.2
2006-02-15 08:48:20 51°11.882 2°47.069 250.6 13.3 246 10.2
2006-02-15 08:48:24 51°11.877 2°47.047 251.2 13.3 248 10.3
2006-02-15 08:48:29 51°11.87 2°47.02 252.6 13.3 248 10.3
2006-02-15 08:48:34 51°11.863 2°46.992 253.6 13.2 249 10.2
2006-02-15 08:48:39 51°11.857 2°46.965 254.7 13.3 250 10.4
2006-02-15 08:48:44 51°11.851 2°46.937 255.6 13.3 251 10.3
2006-02-15 08:48:50 51°11.844 2°46.904 256.3 13.3 251 10.3
2006-02-15 08:48:54 51°11.839 2°46.881 256.9 13.4 252 10.3
2006-02-15 08:48:59 51°11.833 2°46.853 257.2 13.4 251 10.4
2006-02-15 08:49:04 51°11.827 2°46.826 257.1 13.3 251 10.4
2006-02-15 08:49:09 51°11.821 2°46.798 256.8 13.3 251 10.4
2006-02-15 08:49:14 51°11.815 2°46.77 256.4 13.3 250 10.5
2006-02-15 08:49:19 51°11.808 2°46.742 255.9 13.3 250 10.5
2006-02-15 08:49:24 51°11.802 2°46.715 255.4 13.4 250 10.6
2006-02-15 08:49:30 51°11.795 2°46.682 255.4 13.3 250 10.6
2006-02-15 08:49:35 51°11.789 2°46.654 255.7 13.4 251 10.6
2006-02-15 08:49:39 51°11.784 2°46.632 256.2 13.4 251 10.6
2006-02-15 08:49:44 51°11.778 2°46.604 256.2 13.3 251 10.6
2006-02-15 08:49:48 51°11.773 2°46.581 256.3 13.4 251 10.7
2006-02-15 08:49:55 51°11.764 2°46.542 256.3 13.4 251 10.7
2006-02-15 08:49:59 51°11.759 2°46.52 256 13.4 250 10.7
2006-02-15 08:50:04 51°11.753 2°46.492 255.5 13.4 250 10.8
2006-02-15 08:50:08 51°11.748 2°46.47 255.2 13.4 250 10.8
2006-02-15 08:50:15 51°11.739 2°46.431 255.2 13.4 250 10.7
2006-02-15 08:50:19 51°11.734 2°46.409 255.6 13.4 250 10.8
2006-02-15 08:50:24 51°11.728 2°46.382 255.8 13.4 251 10.8
2006-02-15 08:50:29 51°11.722 2°46.354 255.8 13.4 250 10.9
2006-02-15 08:50:34 51°11.715 2°46.326 255.4 13.3 250 10.9
2006-02-15 08:50:40 51°11.708 2°46.293 255 13.3 249 10.9
2006-02-15 08:50:44 51°11.703 2°46.271 255 13.3 250 10.9
2006-02-15 08:50:49 51°11.697 2°46.243 255.3 13.4 251 10.8
2006-02-15 08:50:54 51°11.691 2°46.215 255.8 13.4 251 10.9
2006-02-15 08:50:59 51°11.685 2°46.188 256.1 13.3 251 10.8
2006-02-15 08:51:04 51°11.678 2°46.16 256.1 13.3 251 10.8
2006-02-15 08:51:09 51°11.672 2°46.132 256.1 13.3 250 10.8
2006-02-15 08:51:14 51°11.666 2°46.104 255.7 13.4 250 10.8
2006-02-15 08:51:19 51°11.659 2°46.077 255.3 13.3 250 10.8
2006-02-15 08:51:24 51°11.653 2°46.049 254.8 13.3 250 10.8
2006-02-15 08:51:30 51°11.645 2°46.016 254.5 13.3 250 10.9
2006-02-15 08:51:34 51°11.64 2°45.994 254.3 13.4 249 10.8
2006-02-15 08:51:39 51°11.633 2°45.966 254.3 13.3 250 10.8
2006-02-15 08:51:44 51°11.627 2°45.939 254.4 13.3 250 10.8
2006-02-15 08:51:50 51°11.619 2°45.905 254.7 13.4 250 10.8
2006-02-15 08:51:55 51°11.613 2°45.878 254.8 13.4 250 10.8
2006-02-15 08:51:59 51°11.608 2°45.855 255.3 13.4 250 10.8
2006-02-15 08:52:04 51°11.602 2°45.827 255.7 13.4 251 10.8
2006-02-15 08:52:10 51°11.595 2°45.794 255.8 13.4 251 10.8
2006-02-15 08:52:15 51°11.588 2°45.766 256.1 13.4 251 10.8
2006-02-15 08:52:19 51°11.584 2°45.744 256 13.4 251 10.8
2006-02-15 08:52:24 51°11.577 2°45.716 255.7 13.4 250 10.8
2006-02-15 08:52:29 51°11.571 2°45.688 255.2 13.4 250 10.8
2006-02-15 08:52:34 51°11.564 2°45.66 255 13.4 250 10.9
2006-02-15 08:52:39 51°11.558 2°45.632 254.8 13.4 250 10.9
2006-02-15 08:52:44 51°11.552 2°45.605 254.9 13.4 250 10.8
2006-02-15 08:52:48 51°11.547 2°45.583 255.2 13.3 250 10.8
2006-02-15 08:52:55 51°11.538 2°45.544 255.3 13.3 250 10.9
2006-02-15 08:52:59 51°11.533 2°45.521 255.4 13.3 250 10.8
2006-02-15 08:53:04 51°11.527 2°45.494 255.4 13.3 251 10.8
2006-02-15 08:53:10 51°11.52 2°45.46 255.7 13.4 251 10.9
2006-02-15 08:53:14 51°11.515 2°45.438 255.9 13.4 251 11
2006-02-15 08:53:20 51°11.508 2°45.405 256.2 13.3 251 10.8
2006-02-15 08:53:24 51°11.503 2°45.382 256.3 13.3 251 10.8
2006-02-15 08:53:29 51°11.497 2°45.354 256 13.3 251 10.8
2006-02-15 08:53:34 51°11.491 2°45.327 255.7 13.3 250 10.9
2006-02-15 08:53:39 51°11.485 2°45.299 255.7 13.3 251 10.8
2006-02-15 08:53:44 51°11.479 2°45.271 255.6 13.3 251 10.8
2006-02-15 08:53:50 51°11.471 2°45.238 255.4 13.3 251 10.9
2006-02-15 08:53:54 51°11.466 2°45.216 255.3 13.3 250 10.8
2006-02-15 08:53:59 51°11.46 2°45.189 254.8 13.3 250 10.9
2006-02-15 08:54:04 51°11.453 2°45.161 254.7 13.3 250 10.9
2006-02-15 08:54:09 51°11.447 2°45.134 254.7 13.3 250 10.9
2006-02-15 08:54:14 51°11.441 2°45.106 254.8 13.3 250 10.8
2006-02-15 08:54:19 51°11.434 2°45.078 254.8 13.3 250 10.9
2006-02-15 08:54:24 51°11.428 2°45.051 254.9 13.3 250 10.9
2006-02-15 08:54:29 51°11.422 2°45.023 255 13.3 250 10.8
2006-02-15 08:54:34 51°11.416 2°44.996 255 13.3 251 10.8
2006-02-15 08:54:40 51°11.408 2°44.962 255 13.3 250 10.9
2006-02-15 08:54:44 51°11.403 2°44.94 255.2 13.3 250 10.8
2006-02-15 08:54:49 51°11.397 2°44.912 255 13.3 250 10.8
2006-02-15 08:54:54 51°11.391 2°44.885 255.1 13.4 251 10.8
2006-02-15 08:54:59 51°11.385 2°44.856 255.3 13.3 251 10.8
2006-02-15 08:55:04 51°11.379 2°44.829 255.5 13.3 251 10.9
2006-02-15 08:55:09 51°11.373 2°44.801 255.8 13.3 251 10.8
2006-02-15 08:55:15 51°11.365 2°44.768 255.7 13.4 250 10.8
2006-02-15 08:55:20 51°11.359 2°44.74 255.4 13.4 251 10.8
2006-02-15 08:55:24 51°11.354 2°44.718 255.6 13.4 250 10.8
2006-02-15 08:55:29 51°11.348 2°44.69 255.7 13.4 251 10.9
2006-02-15 08:55:34 51°11.342 2°44.662 255.4 13.4 251 10.9
2006-02-15 08:55:39 51°11.337 2°44.634 256 13.4 252 10.9
2006-02-15 08:55:44 51°11.332 2°44.606 257.1 13.3 253 10.9
2006-02-15 08:55:49 51°11.327 2°44.577 258.2 13.3 255 10.8
2006-02-15 08:55:54 51°11.322 2°44.549 259.8 13.3 256 10.8
2006-02-15 08:55:59 51°11.318 2°44.52 260.7 13.2 256 10.8
2006-02-15 08:56:04 51°11.313 2°44.492 261.2 13.2 256 10.8
2006-02-15 08:56:10 51°11.308 2°44.458 261.4 13.3 256 10.9
2006-02-15 08:56:15 51°11.304 2°44.43 261.4 13.3 256 10.9
2006-02-15 08:56:19 51°11.3 2°44.407 260.9 13.2 255 10.9
2006-02-15 08:56:24 51°11.295 2°44.379 260.1 13.3 255 10.9
2006-02-15 08:56:30 51°11.289 2°44.345 260 13.3 255 10.9
2006-02-15 08:56:34 51°11.285 2°44.322 259.9 13.2 255 10.9
2006-02-15 08:56:39 51°11.28 2°44.294 259.8 13.2 255 10.9
2006-02-15 08:56:44 51°11.276 2°44.266 259.8 13.3 255 10.9
2006-02-15 08:56:49 51°11.271 2°44.237 260.3 13.3 255 10.8
2006-02-15 08:56:55 51°11.266 2°44.203 260.6 13.3 256 10.9
2006-02-15 08:56:59 51°11.262 2°44.18 261.2 13.3 256 10.9
2006-02-15 08:57:04 51°11.259 2°44.152 261.9 13.3 257 11
2006-02-15 08:57:09 51°11.254 2°44.123 262.1 13.2 257 10.9
2006-02-15 08:57:15 51°11.249 2°44.089 262 13.2 257 10.9
2006-02-15 08:57:20 51°11.244 2°44.061 261.6 13.2 256 10.9
2006-02-15 08:57:24 51°11.241 2°44.038 261.1 13.2 256 11
2006-02-15 08:57:29 51°11.236 2°44.01 260.9 13.2 256 11
2006-02-15 08:57:35 51°11.231 2°43.976 260.8 13.2 256 10.9
2006-02-15 08:57:39 51°11.227 2°43.953 260.8 13.2 256 11
2006-02-15 08:57:44 51°11.222 2°43.925 260.7 13.2 256 11
2006-02-15 08:57:49 51°11.218 2°43.897 261 13.2 256 11
2006-02-15 08:57:54 51°11.214 2°43.869 261 13.2 256 11
2006-02-15 08:57:59 51°11.209 2°43.841 260.7 13.2 256 11
2006-02-15 08:58:04 51°11.205 2°43.813 260.4 13.2 255 11
2006-02-15 08:58:10 51°11.199 2°43.78 259.8 13.1 255 10.9
2006-02-15 08:58:14 51°11.195 2°43.758 259.3 13.1 255 11
2006-02-15 08:58:19 51°11.19 2°43.73 259.4 13 254 10.9
2006-02-15 08:58:25 51°11.184 2°43.696 259.7 13 255 11
2006-02-15 08:58:30 51°11.18 2°43.669 259.4 13 254 11
2006-02-15 08:58:34 51°11.176 2°43.646 259.8 13 255 10.9
2006-02-15 08:58:39 51°11.172 2°43.618 260 13.1 255 10.9
2006-02-15 08:58:44 51°11.167 2°43.59 260.4 13 256 11
2006-02-15 08:58:49 51°11.163 2°43.562 260.9 13.1 256 10.9
2006-02-15 08:58:55 51°11.158 2°43.528 261.1 13.1 256 10.9
2006-02-15 08:58:59 51°11.154 2°43.505 261.2 13.2 256 11
2006-02-15 08:59:04 51°11.149 2°43.477 260.8 13.1 256 11
2006-02-15 08:59:09 51°11.145 2°43.449 260.5 13.1 256 11
2006-02-15 08:59:15 51°11.139 2°43.415 260.4 13.2 256 10.9
2006-02-15 08:59:19 51°11.136 2°43.393 260.3 13.1 255 11
2006-02-15 08:59:24 51°11.131 2°43.365 260.1 13.1 255 11
2006-02-15 08:59:29 51°11.126 2°43.337 259.8 13.1 255 11
2006-02-15 08:59:35 51°11.121 2°43.304 259.7 13.1 255 11
2006-02-15 08:59:40 51°11.116 2°43.276 259.6 13.1 255 11.1
2006-02-15 08:59:44 51°11.112 2°43.253 259.5 13.1 255 11
2006-02-15 08:59:48 51°11.108 2°43.231 259.4 13.1 255 11
2006-02-15 08:59:54 51°11.103 2°43.197 259.3 13.2 255 11
2006-02-15 08:59:59 51°11.098 2°43.17 259.2 13.2 255 11.1
2006-02-15 09:00:04 51°11.094 2°43.141 259.8 13.2 255 11
2006-02-15 09:00:08 51°11.09 2°43.119 260.3 13.1 256 11
2006-02-15 09:00:14 51°11.085 2°43.085 261.2 13.1 257 11.1
2006-02-15 09:00:19 51°11.081 2°43.056 261.8 13.1 257 11
2006-02-15 09:00:24 51°11.077 2°43.028 261.8 13.1 257 11
2006-02-15 09:00:29 51°11.073 2°43 261.8 13.1 257 11
2006-02-15 09:00:34 51°11.069 2°42.972 261.5 13.2 257 11
2006-02-15 09:00:40 51°11.063 2°42.938 261 13.1 256 11
2006-02-15 09:00:44 51°11.06 2°42.915 260.5 13.2 255 11.1
2006-02-15 09:00:48 51°11.056 2°42.893 260.2 13.2 256 11.1
2006-02-15 09:00:54 51°11.051 2°42.859 260 13.1 256 11
2006-02-15 09:00:59 51°11.046 2°42.831 260.1 13.2 256 11.1
2006-02-15 09:01:04 51°11.042 2°42.803 260.4 13.1 256 11.1
2006-02-15 09:01:08 51°11.039 2°42.78 260.8 13.2 256 11.1
2006-02-15 09:01:14 51°11.033 2°42.747 260.8 13.2 256 11.1
2006-02-15 09:01:19 51°11.029 2°42.718 260.9 13.1 257 11.1
2006-02-15 09:01:24 51°11.025 2°42.69 261.2 13.1 256 11
2006-02-15 09:01:28 51°11.021 2°42.667 261 13.1 256 11.1
2006-02-15 09:01:35 51°11.015 2°42.628 260.9 13.1 256 11
2006-02-15 09:01:39 51°11.011 2°42.606 260.5 13.1 255 11.1
2006-02-15 09:01:44 51°11.006 2°42.578 260.1 13.1 255 11
2006-02-15 09:01:49 51°11.002 2°42.55 259.4 13.1 255 11
2006-02-15 09:01:55 51°10.997 2°42.516 259.4 13.1 256 11.1
2006-02-15 09:01:59 51°10.993 2°42.494 259.8 13 256 11
2006-02-15 09:02:04 51°10.989 2°42.466 260.2 13 256 11
2006-02-15 09:02:08 51°10.985 2°42.444 260.7 13.1 256 11
2006-02-15 09:02:14 51°10.98 2°42.41 260.8 13.1 256 11
2006-02-15 09:02:20 51°10.974 2°42.376 260.6 13.1 256 11.1
2006-02-15 09:02:24 51°10.971 2°42.354 260.1 13.1 256 11.1
2006-02-15 09:02:29 51°10.966 2°42.326 260 13.1 256 11.1
2006-02-15 09:02:35 51°10.961 2°42.292 260.1 13.1 256 11.1
2006-02-15 09:02:40 51°10.957 2°42.264 260.2 13.1 256 11.1
2006-02-15 09:02:45 51°10.953 2°42.236 260.5 13.1 257 11.1
2006-02-15 09:02:48 51°10.95 2°42.219 260.7 13.1 257 11.1
2006-02-15 09:02:54 51°10.945 2°42.186 261 13.1 257 11.2
2006-02-15 09:02:59 51°10.94 2°42.158 261.1 13 256 11.1
2006-02-15 09:03:04 51°10.936 2°42.13 260.9 13.1 257 11.1
2006-02-15 09:03:08 51°10.933 2°42.107 260.7 13.1 256 11
2006-02-15 09:03:14 51°10.927 2°42.074 260.5 13.1 256 11.1
2006-02-15 09:03:19 51°10.923 2°42.046 260.2 13.1 256 11.1
2006-02-15 09:03:24 51°10.918 2°42.018 259.9 13 256 11.1
2006-02-15 09:03:30 51°10.913 2°41.984 259.8 13.1 255 11.1
2006-02-15 09:03:35 51°10.909 2°41.957 259.9 13 256 11.1
2006-02-15 09:03:39 51°10.905 2°41.934 259.9 13 256 11.1
2006-02-15 09:03:44 51°10.901 2°41.907 260.1 13 256 11.1
2006-02-15 09:03:49 51°10.896 2°41.879 260.2 13 256 11.1
2006-02-15 09:03:55 51°10.891 2°41.846 260.2 12.9 256 11
2006-02-15 09:03:59 51°10.888 2°41.823 260.4 13 257 11.1
2006-02-15 09:04:04 51°10.884 2°41.796 260.7 13 257 11.1
2006-02-15 09:04:08 51°10.881 2°41.773 261.1 13 257 11
2006-02-15 09:04:15 51°10.875 2°41.734 261.1 13 257 11.1
2006-02-15 09:04:19 51°10.872 2°41.712 261.1 13 256 11.2
2006-02-15 09:04:24 51°10.868 2°41.684 260.7 13 256 11.1
2006-02-15 09:04:30 51°10.863 2°41.651 260.3 13 256 11.1
2006-02-15 09:04:34 51°10.859 2°41.628 259.8 13 256 11.1
2006-02-15 09:04:40 51°10.854 2°41.595 259.4 13 256 11.1
2006-02-15 09:04:44 51°10.85 2°41.573 259.3 13 255 11
2006-02-15 09:04:49 51°10.845 2°41.545 259.3 13 255 11.1
2006-02-15 09:04:54 51°10.841 2°41.517 259.5 13 256 11
2006-02-15 09:05:00 51°10.836 2°41.484 259.7 13 256 11.1
2006-02-15 09:05:04 51°10.833 2°41.461 260.3 13 257 11.1
2006-02-15 09:05:09 51°10.829 2°41.433 260.7 13 257 11
2006-02-15 09:05:15 51°10.824 2°41.4 261 13 257 11
2006-02-15 09:05:19 51°10.821 2°41.377 261 13 257 11
2006-02-15 09:05:24 51°10.816 2°41.349 260.9 13 257 11
2006-02-15 09:05:30 51°10.811 2°41.316 260.6 13 256 11
2006-02-15 09:05:35 51°10.807 2°41.288 260.4 13 256 11
2006-02-15 09:05:39 51°10.803 2°41.266 260.2 13.1 256 11
2006-02-15 09:05:44 51°10.799 2°41.238 259.9 13.1 256 11.1
2006-02-15 09:05:50 51°10.793 2°41.204 259.7 13 256 11
2006-02-15 09:05:55 51°10.789 2°41.177 259.4 13.1 256 11
2006-02-15 09:06:00 51°10.785 2°41.149 259.6 13.1 256 11
2006-02-15 09:06:04 51°10.782 2°41.126 260 13.1 256 11
2006-02-15 09:06:09 51°10.778 2°41.098 260.7 13 257 11.1
2006-02-15 09:06:14 51°10.774 2°41.07 261.1 13 258 11.1
2006-02-15 09:06:20 51°10.769 2°41.036 261.4 13.1 258 11.1
2006-02-15 09:06:25 51°10.765 2°41.008 261.6 13.1 258 11.1
2006-02-15 09:06:28 51°10.763 2°40.991 261.6 13 257 11.1
2006-02-15 09:06:35 51°10.757 2°40.952 260.8 13.1 257 11.1
2006-02-15 09:06:39 51°10.754 2°40.929 260.8 13 257 11.1
2006-02-15 09:06:44 51°10.75 2°40.902 260.6 13 257 11.2
2006-02-15 09:06:50 51°10.745 2°40.868 260.5 13 257 11.2
2006-02-15 09:06:54 51°10.741 2°40.846 260.2 13 257 11.3
2006-02-15 09:07:00 51°10.736 2°40.812 260.2 13.1 256 11.3
2006-02-15 09:07:04 51°10.733 2°40.79 260.2 13 257 11.4
2006-02-15 09:07:09 51°10.729 2°40.762 260.3 13.1 257 11.4
2006-02-15 09:07:15 51°10.724 2°40.728 260.5 13.1 257 11.4
2006-02-15 09:07:19 51°10.721 2°40.705 261 13.1 257 11.4
2006-02-15 09:07:24 51°10.717 2°40.677 261.2 13 257 11.5
2006-02-15 09:07:29 51°10.713 2°40.649 261.2 13 257 11.5
2006-02-15 09:07:35 51°10.708 2°40.616 261.2 13 258 11.6
2006-02-15 09:07:39 51°10.705 2°40.593 261.3 13.1 257 11.6
2006-02-15 09:07:44 51°10.701 2°40.565 261 13 257 11.7
2006-02-15 09:07:49 51°10.696 2°40.537 260.7 13 256 11.7
2006-02-15 09:07:55 51°10.691 2°40.504 260.5 13 257 11.7
2006-02-15 09:07:59 51°10.688 2°40.482 260.5 13 256 11.9
2006-02-15 09:08:04 51°10.684 2°40.454 260.5 13 256 11.8
2006-02-15 09:08:09 51°10.68 2°40.426 260.4 12.9 257 12
2006-02-15 09:08:15 51°10.675 2°40.392 260.5 13 257 12
2006-02-15 09:08:19 51°10.672 2°40.37 260.7 13 257 12
2006-02-15 09:08:24 51°10.668 2°40.342 260.7 13 257 12.1
2006-02-15 09:08:30 51°10.663 2°40.309 260.5 13 257 12.1
2006-02-15 09:08:35 51°10.658 2°40.281 260.4 13 257 12.1
2006-02-15 09:08:40 51°10.654 2°40.253 260.1 13 256 12.2
2006-02-15 09:08:44 51°10.65 2°40.231 259.8 13 256 12.3
2006-02-15 09:08:49 51°10.646 2°40.203 259.5 12.9 255 12.2
2006-02-15 09:08:54 51°10.641 2°40.176 258.7 12.9 255 12.4
2006-02-15 09:08:59 51°10.637 2°40.149 258.6 12.9 255 12.4
2006-02-15 09:09:04 51°10.632 2°40.122 258.5 12.9 255 12.5
2006-02-15 09:09:09 51°10.627 2°40.094 258.3 13 255 12.5
2006-02-15 09:09:15 51°10.622 2°40.06 258.1 13 255 12.4
2006-02-15 09:09:20 51°10.617 2°40.033 258.2 13.1 255 12.6
2006-02-15 09:09:24 51°10.614 2°40.011 258.7 13 255 12.6
2006-02-15 09:09:29 51°10.609 2°39.983 259 13 255 12.6
2006-02-15 09:09:35 51°10.603 2°39.949 259 13.1 255 12.7
2006-02-15 09:09:39 51°10.6 2°39.927 258.5 13.1 255 12.8
2006-02-15 09:09:44 51°10.595 2°39.899 258.4 13.1 255 12.8
2006-02-15 09:09:49 51°10.59 2°39.871 257.9 13.1 255 12.9
2006-02-15 09:09:55 51°10.585 2°39.838 257.9 13 255 13.1
2006-02-15 09:09:59 51°10.581 2°39.816 257.9 13.1 255 13.1
2006-02-15 09:10:04 51°10.576 2°39.788 258.1 13.1 255 13.2
2006-02-15 09:10:10 51°10.571 2°39.754 258.3 13.1 255 13.1
2006-02-15 09:10:15 51°10.566 2°39.726 258.7 13.1 256 13.2
2006-02-15 09:10:19 51°10.563 2°39.704 258.5 13.1 255 13.1
2006-02-15 09:10:24 51°10.558 2°39.676 258.4 13.1 255 13.3
2006-02-15 09:10:29 51°10.553 2°39.648 258.3 13.1 255 13.3
2006-02-15 09:10:34 51°10.549 2°39.62 258 13.1 255 13.2
2006-02-15 09:10:39 51°10.544 2°39.592 258.1 13.1 255 13.4
2006-02-15 09:10:44 51°10.54 2°39.564 258.2 13.1 255 13.4
2006-02-15 09:10:49 51°10.535 2°39.536 258.3 13.1 255 13.4
2006-02-15 09:10:55 51°10.53 2°39.503 258.4 13.1 255 13.6
2006-02-15 09:10:59 51°10.526 2°39.481 258.4 13 255 13.7
2006-02-15 09:11:04 51°10.521 2°39.453 258.4 13 255 13.5
2006-02-15 09:11:09 51°10.517 2°39.425 258.2 13.1 255 13.7
2006-02-15 09:11:15 51°10.511 2°39.392 258 12.9 255 13.7
2006-02-15 09:11:19 51°10.507 2°39.37 257.9 12.9 255 13.7
2006-02-15 09:11:24 51°10.502 2°39.342 257.7 13 255 13.9
2006-02-15 09:11:29 51°10.498 2°39.315 257.7 13 255 13.9
2006-02-15 09:11:34 51°10.493 2°39.287 258 13 255 14.1
2006-02-15 09:11:39 51°10.489 2°39.26 258.3 12.9 256 14
2006-02-15 09:11:44 51°10.485 2°39.232 258.3 12.9 256 14.1
2006-02-15 09:11:49 51°10.48 2°39.204 258.5 13 256 14.2
2006-02-15 09:11:55 51°10.475 2°39.171 258.3 12.9 256 14.2
2006-02-15 09:11:59 51°10.471 2°39.149 258.3 13 256 14.1
2006-02-15 09:12:04 51°10.467 2°39.121 258.5 13 256 14.1
2006-02-15 09:12:09 51°10.463 2°39.093 258.5 12.9 256 14.1
2006-02-15 09:12:15 51°10.457 2°39.06 258.3 13 256 14.2
2006-02-15 09:12:19 51°10.454 2°39.038 258.4 13 256 14.2
2006-02-15 09:12:24 51°10.45 2°39.01 258.4 13 256 14.2
2006-02-15 09:12:29 51°10.445 2°38.982 258.3 13 256 14.3
2006-02-15 09:12:35 51°10.44 2°38.948 258.3 13 256 14.4
2006-02-15 09:12:39 51°10.436 2°38.926 258.2 13.1 255 14.7
2006-02-15 09:12:44 51°10.432 2°38.898 257.5 13 255 14.7
2006-02-15 09:12:50 51°10.426 2°38.865 257.4 13 255 14.7
2006-02-15 09:12:55 51°10.421 2°38.837 257.1 13.1 254 14.6
2006-02-15 09:12:59 51°10.417 2°38.815 257 13 254 14.9
2006-02-15 09:13:04 51°10.413 2°38.788 256.7 12.9 255 14.9
2006-02-15 09:13:09 51°10.408 2°38.76 256.8 12.9 254 14.9
2006-02-15 09:13:15 51°10.402 2°38.728 257 12.9 255 15
2006-02-15 09:13:19 51°10.399 2°38.706 257.4 13 256 14.9
2006-02-15 09:13:24 51°10.394 2°38.678 257.7 12.9 255 15.1
2006-02-15 09:13:29 51°10.39 2°38.65 258.1 12.9 256 15
2006-02-15 09:13:35 51°10.384 2°38.617 258.5 13 256 14.9
2006-02-15 09:13:40 51°10.38 2°38.589 258.6 13 256 15
2006-02-15 09:13:44 51°10.377 2°38.567 258.8 13 256 14.8
2006-02-15 09:13:49 51°10.372 2°38.539 258.5 13 256 14.8
2006-02-15 09:13:54 51°10.368 2°38.511 258.3 13 256 14.8
2006-02-15 09:14:00 51°10.363 2°38.478 258.3 12.9 257 14.9
2006-02-15 09:14:05 51°10.359 2°38.45 258.6 13 256 14.9
2006-02-15 09:14:10 51°10.354 2°38.423 258.7 13 256 15.2
2006-02-15 09:14:14 51°10.351 2°38.4 258.5 12.9 256 15.1
2006-02-15 09:14:19 51°10.347 2°38.372 258.4 13 257 15
2006-02-15 09:14:24 51°10.342 2°38.345 258.4 12.9 256 15
2006-02-15 09:14:29 51°10.338 2°38.317 258.3 12.9 256 15
2006-02-15 09:14:35 51°10.333 2°38.284 258.2 12.9 256 15.1
2006-02-15 09:14:39 51°10.329 2°38.262 258 12.9 256 15.2
2006-02-15 09:14:44 51°10.326 2°38.234 258 12.9 255 15.3
2006-02-15 09:14:49 51°10.321 2°38.207 257.6 12.9 256 15.5
2006-02-15 09:14:54 51°10.317 2°38.179 257.6 12.9 256 15.4
2006-02-15 09:14:59 51°10.312 2°38.151 257.6 12.9 256 15.3
2006-02-15 09:15:04 51°10.308 2°38.124 257.8 13 256 15.4
2006-02-15 09:15:10 51°10.302 2°38.09 257.9 12.9 256 15.6
2006-02-15 09:15:15 51°10.298 2°38.062 257.9 13 256 15.7
2006-02-15 09:15:19 51°10.295 2°38.04 258.3 12.9 257 15.8
2006-02-15 09:15:24 51°10.291 2°38.012 258.8 13 257 15.8
2006-02-15 09:15:29 51°10.287 2°37.984 259.1 12.9 257 15.8
2006-02-15 09:15:35 51°10.282 2°37.95 259.1 13 257 15.8
2006-02-15 09:15:39 51°10.279 2°37.928 258.4 12.9 256 16
2006-02-15 09:15:44 51°10.275 2°37.901 258.3 12.8 257 16
2006-02-15 09:15:49 51°10.271 2°37.874 258.4 12.9 257 16.2
2006-02-15 09:15:55 51°10.266 2°37.84 258.6 12.8 257 16.2
2006-02-15 09:15:59 51°10.263 2°37.818 258.9 12.8 257 16.3
2006-02-15 09:16:04 51°10.258 2°37.791 258.8 12.9 257 16.3
2006-02-15 09:16:09 51°10.254 2°37.763 258.5 12.9 257 16.4
2006-02-15 09:16:15 51°10.25 2°37.729 258.5 12.9 257 16.5
2006-02-15 09:16:19 51°10.246 2°37.707 258.5 12.9 256 16.5
2006-02-15 09:16:24 51°10.242 2°37.679 258.1 12.9 256 16.4
2006-02-15 09:16:30 51°10.237 2°37.646 257.8 12.9 256 16.6
2006-02-15 09:16:35 51°10.233 2°37.618 257.7 12.9 257 16.7
2006-02-15 09:16:39 51°10.229 2°37.595 257.8 13 257 16.6
2006-02-15 09:16:44 51°10.225 2°37.568 258.3 12.9 256 16.6
2006-02-15 09:16:49 51°10.22 2°37.54 258.3 13 255 16.7
2006-02-15 09:16:54 51°10.215 2°37.513 257.7 12.9 254 16.5
2006-02-15 09:16:59 51°10.21 2°37.485 256.8 13 254 16.6
2006-02-15 09:17:04 51°10.205 2°37.457 256.8 13.1 254 16.5
2006-02-15 09:17:10 51°10.2 2°37.424 257.6 13.1 255 16.6
2006-02-15 09:17:15 51°10.196 2°37.396 258.3 13.1 255 16.7
2006-02-15 09:17:20 51°10.191 2°37.368 258.7 13.1 256 16.7
2006-02-15 09:17:24 51°10.188 2°37.345 259 13 256 16.6
2006-02-15 09:17:30 51°10.183 2°37.312 259 13.1 256 16.7
2006-02-15 09:17:35 51°10.178 2°37.284 259.1 13 256 16.7
2006-02-15 09:17:39 51°10.175 2°37.261 259 13.2 256 16.8
2006-02-15 09:17:44 51°10.17 2°37.234 258.9 13.1 255 16.9
2006-02-15 09:17:50 51°10.165 2°37.2 258.6 13.1 256 16.7
2006-02-15 09:17:55 51°10.16 2°37.172 258.3 13 255 16.7
2006-02-15 09:18:00 51°10.155 2°37.145 258.3 13.1 255 16.8
2006-02-15 09:18:04 51°10.152 2°37.122 258 13.1 255 16.9
2006-02-15 09:18:09 51°10.147 2°37.094 257.9 13.1 255 16.9
2006-02-15 09:18:14 51°10.143 2°37.066 258.1 13 255 16.9
2006-02-15 09:18:20 51°10.137 2°37.033 258.1 13 255 16.8
2006-02-15 09:18:24 51°10.134 2°37.011 258.1 13 256 16.2
2006-02-15 09:18:29 51°10.129 2°36.983 258.1 13 256 16.5
2006-02-15 09:18:34 51°10.125 2°36.955 258.3 13 255 16.6
2006-02-15 09:18:40 51°10.119 2°36.921 258.4 13.1 256 16.6
2006-02-15 09:18:44 51°10.116 2°36.899 258.8 13.1 256 16.5
2006-02-15 09:18:49 51°10.112 2°36.872 259 13 257 16.7
2006-02-15 09:18:54 51°10.107 2°36.843 259.4 13 256 16.5
2006-02-15 09:18:59 51°10.103 2°36.816 259.1 12.9 256 16.6
2006-02-15 09:19:04 51°10.099 2°36.788 259.1 13 257 16.6
2006-02-15 09:19:09 51°10.094 2°36.76 259.1 13 256 16.6
2006-02-15 09:19:14 51°10.09 2°36.732 258.9 12.9 256 16.3
2006-02-15 09:19:19 51°10.086 2°36.704 258.4 13 256 16.6
2006-02-15 09:19:24 51°10.081 2°36.677 258.3 13 256 16.7
2006-02-15 09:19:30 51°10.077 2°36.644 258.9 12.9 256 16.6
2006-02-15 09:19:35 51°10.073 2°36.616 259.3 12.9 257 16.6
2006-02-15 09:19:39 51°10.07 2°36.593 260 12.9 257 16.7
2006-02-15 09:19:44 51°10.066 2°36.565 260.7 13 258 16.8
2006-02-15 09:19:49 51°10.063 2°36.537 261.4 13 259 16.6
2006-02-15 09:19:54 51°10.06 2°36.509 262.5 12.9 261 16.8
2006-02-15 09:19:59 51°10.058 2°36.48 263.9 12.9 262 16.7
2006-02-15 09:20:04 51°10.056 2°36.452 265.2 12.9 263 16.9
2006-02-15 09:20:09 51°10.054 2°36.424 266.1 13 263 16.9
2006-02-15 09:20:15 51°10.052 2°36.39 266.4 12.8 264 16.9
2006-02-15 09:20:19 51°10.052 2°36.368 267.8 12.9 266 16.8
2006-02-15 09:20:24 51°10.051 2°36.339 268.6 12.9 268 16.8
2006-02-15 09:20:30 51°10.051 2°36.305 270 12.9 269 16.8
2006-02-15 09:20:34 51°10.052 2°36.282 272.6 12.9 273 16.8
2006-02-15 09:20:40 51°10.054 2°36.248 275.6 12.7 276 16.6
2006-02-15 09:20:44 51°10.056 2°36.226 277.8 12.7 276 16.3
2006-02-15 09:20:49 51°10.059 2°36.198 279.3 12.8 277 16.4
2006-02-15 09:20:54 51°10.061 2°36.17 280.4 12.8 278 16.3
2006-02-15 09:20:59 51°10.064 2°36.142 281.3 12.8 279 16.4
2006-02-15 09:21:05 51°10.067 2°36.11 281.6 12.8 279 16.3
2006-02-15 09:21:10 51°10.071 2°36.082 281.9 12.7 279 16.1
2006-02-15 09:21:14 51°10.073 2°36.06 281.6 12.7 280 15.9
2006-02-15 09:21:19 51°10.076 2°36.033 282.3 12.6 280 15.6
2006-02-15 09:21:24 51°10.079 2°36.006 282.1 12.6 281 15.6
2006-02-15 09:21:29 51°10.083 2°35.978 283.5 12.6 283 15.5
2006-02-15 09:21:34 51°10.088 2°35.952 285.2 12.5 285 15.1
2006-02-15 09:21:40 51°10.093 2°35.919 287 12.4 285 14.5
2006-02-15 09:21:44 51°10.097 2°35.899 288.1 12.4 285 14.2
2006-02-15 09:21:49 51°10.102 2°35.872 288.5 12.4 287 14
2006-02-15 09:21:54 51°10.107 2°35.846 288.9 12.3 287 13.2
2006-02-15 09:22:00 51°10.114 2°35.816 290.3 12.2 291 12.8
2006-02-15 09:22:05 51°10.122 2°35.791 293.8 12.3 293 12.6
2006-02-15 09:22:10 51°10.13 2°35.768 297.1 12.2 296 11.9
2006-02-15 09:22:15 51°10.138 2°35.745 300.1 12.2 300 11.3
2006-02-15 09:22:19 51°10.145 2°35.726 303 12.3 300 10.5
2006-02-15 09:22:24 51°10.154 2°35.703 303.8 12.2 302 10.1
2006-02-15 09:22:30 51°10.166 2°35.676 305.2 12.1 303 9.9
2006-02-15 09:22:34 51°10.174 2°35.66 307.4 12.1 309 9.5
2006-02-15 09:22:40 51°10.188 2°35.637 311.2 12 311 9.4
2006-02-15 09:22:44 51°10.198 2°35.624 316.1 11.9 319 9.4
2006-02-15 09:22:48 51°10.208 2°35.609 320.9 11.9 319 9.5
2006-02-15 09:22:54 51°10.224 2°35.591 323.9 12 322 9.7
2006-02-15 09:23:00 51°10.241 2°35.571 326.5 12.1 324 9.8
2006-02-15 09:23:05 51°10.255 2°35.559 328 12.1 324 10.1
2006-02-15 09:23:08 51°10.264 2°35.551 331.6 12.1 333 10
2006-02-15 09:23:15 51°10.286 2°35.537 335.9 11.9 337 10
2006-02-15 09:23:20 51°10.301 2°35.528 340 12.1 339 9.9
2006-02-15 09:23:24 51°10.314 2°35.523 344.6 12 344 9.8
2006-02-15 09:23:29 51°10.33 2°35.515 347.1 12.1 345 9.9
2006-02-15 09:23:34 51°10.347 2°35.51 349 12 348 9.8
2006-02-15 09:23:39 51°10.364 2°35.507 351.8 12.1 348 9.8
2006-02-15 09:23:44 51°10.38 2°35.504 355.9 12.1 353 9.9
2006-02-15 09:23:48 51°10.393 2°35.504 357.7 12 -999 9.7
2006-02-15 09:23:54 51°10.414 2°35.505 2.1 12.1 -999 9.7
2006-02-15 09:23:59 51°10.43 2°35.508 5.7 12 6 9.5
2006-02-15 09:24:04 51°10.446 2°35.511 7.8 12 6 9.3
2006-02-15 09:24:09 51°10.463 2°35.517 10.5 12 13 9.1
2006-02-15 09:24:15 51°10.482 2°35.522 13.6 11.9 11 9
2006-02-15 09:24:20 51°10.498 2°35.531 13.6 11.9 17 8.9
2006-02-15 09:24:24 51°10.512 2°35.534 16.8 12.2 11 9
2006-02-15 09:24:29 51°10.527 2°35.544 17.4 12.1 21 9
2006-02-15 09:24:35 51°10.546 2°35.556 20.5 12.1 20 8.9
2006-02-15 09:24:39 51°10.558 2°35.565 23.5 12 23 8.9
2006-02-15 09:24:44 51°10.574 2°35.576 26.2 12 28 9.1
2006-02-15 09:24:49 51°10.588 2°35.59 26.5 12.3 30 9
2006-02-15 09:24:54 51°10.604 2°35.601 30.6 12.2 25 9.1
2006-02-15 09:25:00 51°10.62 2°35.619 30.4 12.2 25 9
2006-02-15 09:25:04 51°10.632 2°35.628 32.5 12.1 27 9
2006-02-15 09:25:08 51°10.643 2°35.642 33.2 12.2 36 9.2
2006-02-15 09:25:14 51°10.661 2°35.659 35.1 12.3 32 9.2
2006-02-15 09:25:19 51°10.674 2°35.675 36.1 12.3 35 9.3
2006-02-15 09:25:24 51°10.688 2°35.691 36.9 12.3 35 9.3
2006-02-15 09:25:29 51°10.703 2°35.705 37 12.2 32 9
2006-02-15 09:25:35 51°10.719 2°35.724 36.6 12.2 35 9.2
2006-02-15 09:25:39 51°10.73 2°35.738 37.7 12.3 37 9.2
2006-02-15 09:25:44 51°10.743 2°35.754 39.9 12.4 39 9.1
2006-02-15 09:25:49 51°10.756 2°35.771 39.1 12.2 38 9.2
2006-02-15 09:25:55 51°10.773 2°35.79 40.5 12.3 40 9.1
2006-02-15 09:25:59 51°10.784 2°35.804 39.2 12.2 38 9.2
2006-02-15 09:26:05 51°10.8 2°35.822 39.1 12.2 37 9.3
2006-02-15 09:26:09 51°10.812 2°35.834 38 12.3 33 9.3
2006-02-15 09:26:15 51°10.829 2°35.852 36.2 12.3 34 9.2
2006-02-15 09:26:19 51°10.841 2°35.862 34.6 12.3 31 9.2
2006-02-15 09:26:24 51°10.855 2°35.877 32.7 12.2 30 9
2006-02-15 09:26:30 51°10.874 2°35.891 34 12.4 34 9.2
2006-02-15 09:26:35 51°10.888 2°35.906 30.8 12.3 24 9.1
2006-02-15 09:26:39 51°10.9 2°35.916 32 12.2 29 9.2
2006-02-15 09:26:44 51°10.914 2°35.931 32.6 12.4 33 9.2
2006-02-15 09:26:50 51°10.932 2°35.948 33.6 12.2 32 9.3
2006-02-15 09:26:54 51°10.942 2°35.961 35.5 12.2 37 9.5
2006-02-15 09:27:00 51°10.959 2°35.978 35.1 12.1 31 9.5
2006-02-15 09:27:05 51°10.974 2°35.993 35 12.2 35 9.6
2006-02-15 09:27:08 51°10.982 2°36.001 35.6 12.3 32 9.5
2006-02-15 09:27:15 51°11.002 2°36.021 34.7 12.2 32 9.6
2006-02-15 09:27:20 51°11.017 2°36.035 34.4 12.2 31 9.6
2006-02-15 09:27:24 51°11.029 2°36.046 32.2 12.3 29 9.4
2006-02-15 09:27:29 51°11.044 2°36.059 33.1 12.2 32 9.5
2006-02-15 09:27:35 51°11.061 2°36.077 32.8 12.2 29 9.4
2006-02-15 09:27:39 51°11.073 2°36.087 34.3 12.3 28 9.3
2006-02-15 09:27:44 51°11.087 2°36.102 33.6 12.3 31 9.6
2006-02-15 09:27:49 51°11.102 2°36.116 33.2 12.3 31 9.5
2006-02-15 09:27:55 51°11.118 2°36.135 34.1 12.3 34 9.7
2006-02-15 09:27:59 51°11.13 2°36.147 36.1 12.3 30 9.6
2006-02-15 09:28:04 51°11.144 2°36.162 36.2 12.3 36 9.6
2006-02-15 09:28:09 51°11.158 2°36.178 35.8 12.3 35 9.6
2006-02-15 09:28:15 51°11.175 2°36.195 37 12.4 37 9.6
2006-02-15 09:28:19 51°11.186 2°36.209 36.2 12.4 35 9.8
2006-02-15 09:28:25 51°11.204 2°36.226 37 12.4 33 9.7
2006-02-15 09:28:30 51°11.218 2°36.241 36.3 12.4 33 9.6
2006-02-15 09:28:35 51°11.233 2°36.256 35.4 12.4 33 9.7
2006-02-15 09:28:39 51°11.245 2°36.267 35.9 12.3 30 9.8
2006-02-15 09:28:44 51°11.259 2°36.283 34.1 12.3 32 9.7
2006-02-15 09:28:49 51°11.274 2°36.295 34.6 12.2 31 9.7
2006-02-15 09:28:54 51°11.287 2°36.312 34.7 12.4 37 9.8
2006-02-15 09:28:59 51°11.302 2°36.325 34.5 12.2 28 9.5
2006-02-15 09:29:04 51°11.316 2°36.34 35.1 12.2 34 9.6
2006-02-15 09:29:10 51°11.333 2°36.357 34.7 12.2 29 9.7
2006-02-15 09:29:15 51°11.347 2°36.372 33.6 12.3 37 9.7
2006-02-15 09:29:20 51°11.362 2°36.383 35.2 12.1 25 9.7
2006-02-15 09:29:24 51°11.373 2°36.397 32.1 12.2 37 9.8
2006-02-15 09:29:28 51°11.385 2°36.407 35.7 12.2 38 9.9
2006-02-15 09:29:34 51°11.401 2°36.425 31.6 11.9 36 9.8
2006-02-15 09:29:40 51°11.419 2°36.44 35.9 12 37 9.9
2006-02-15 09:29:44 51°11.43 2°36.453 34.6 12.2 33 9.9
2006-02-15 09:29:49 51°11.444 2°36.466 33.8 11.7 30 9.8
2006-02-15 09:29:55 51°11.46 2°36.486 35 11.8 34 9.7
2006-02-15 09:29:59 51°11.472 2°36.495 37.4 12.2 26 9.7
2006-02-15 09:30:04 51°11.485 2°36.513 35 12 33 9.9
2006-02-15 09:30:09 51°11.5 2°36.527 37.8 12.4 32 9.8
2006-02-15 09:30:14 51°11.513 2°36.543 36.5 12.1 35 9.9
2006-02-15 09:30:20 51°11.53 2°36.56 36.9 12.1 33 9.9
2006-02-15 09:30:24 51°11.542 2°36.571 36.4 12.4 35 9.8
2006-02-15 09:30:30 51°11.56 2°36.588 33.4 12.4 28 9.8
2006-02-15 09:30:34 51°11.571 2°36.599 34.2 12.2 31 9.8
2006-02-15 09:30:39 51°11.586 2°36.612 34.5 12.3 29 9.7
2006-02-15 09:30:44 51°11.6 2°36.627 31.4 12.3 29 9.8
2006-02-15 09:30:49 51°11.615 2°36.64 34 12.3 29 9.8
2006-02-15 09:30:54 51°11.63 2°36.653 32.1 12.1 28 9.9
2006-02-15 09:31:00 51°11.647 2°36.67 30.9 12 29 9.8
2006-02-15 09:31:04 51°11.659 2°36.681 33.6 12 29 9.7
2006-02-15 09:31:09 51°11.674 2°36.694 33.2 12.2 30 9.9
2006-02-15 09:31:14 51°11.688 2°36.71 33.3 12.2 34 9.8
2006-02-15 09:31:20 51°11.705 2°36.725 35.1 12.3 34 9.7
2006-02-15 09:31:24 51°11.717 2°36.738 33 12.1 33 9.7
2006-02-15 09:31:29 51°11.73 2°36.753 35 12.2 35 9.8
2006-02-15 09:31:34 51°11.745 2°36.767 36.5 12.4 31 9.6
2006-02-15 09:31:39 51°11.759 2°36.783 36 12.2 34 9.7
2006-02-15 09:31:44 51°11.773 2°36.798 35 12.1 30 9.7
2006-02-15 09:31:49 51°11.788 2°36.811 36 12.4 30 9.6
2006-02-15 09:31:55 51°11.805 2°36.829 34.8 12.3 30 9.7
2006-02-15 09:32:00 51°11.819 2°36.843 34.3 12.2 32 9.6
2006-02-15 09:32:04 51°11.831 2°36.855 34.8 12.2 32 9.6
2006-02-15 09:32:09 51°11.845 2°36.869 35.1 12.2 32 9.6
2006-02-15 09:32:15 51°11.862 2°36.889 34.7 12.2 30 9.5
2006-02-15 09:32:19 51°11.874 2°36.897 36.8 12.2 28 9.6
2006-02-15 09:32:24 51°11.887 2°36.915 34.1 12.1 29 9.7
2006-02-15 09:32:29 51°11.902 2°36.927 37.1 12.1 28 9.6
2006-02-15 09:32:35 51°11.918 2°36.945 34.8 12.2 29 9.6
2006-02-15 09:32:39 51°11.93 2°36.956 35.4 12.2 32 9.7
2006-02-15 09:32:44 51°11.944 2°36.972 35.8 12.3 35 9.8
2006-02-15 09:32:49 51°11.958 2°36.986 35.5 12.1 31 9.7
2006-02-15 09:32:54 51°11.972 2°37.001 35.9 12 35 9.6
2006-02-15 09:32:59 51°11.986 2°37.015 36.4 11.9 33 9.8